Time;durP1;ratioP1;P1;durP2;ratioP2;P2;SDS_P1;SDS_P2;PMS_P1;PMS_P2;Temp;Humidity;BMP_temperature;BMP_pressure;BME280_temperature;BME280_humidity;BME280_pressure;Samples;Min_cycle;Max_cycle;Signal;HPM_P1;HPM_P2
2024/03/17 00:00:04;;;;;;;10.53;5.63;;;;;;;;;;694842;28;984;-69
2024/03/17 00:00:25;;;;;;;10.27;5.55;;;;;;;;;;696259;28;2344;-68
2024/03/17 00:00:45;;;;;;;9.85;5.70;;;;;;;;;;695452;28;4584;-69
2024/03/17 00:01:06;;;;;;;11.03;5.47;;;;;;;;;;696509;28;1251;-68
2024/03/17 00:01:26;;;;;;;10.50;5.32;;;;;;;;;;696128;28;2320;-68
2024/03/17 00:01:47;;;;;;;8.77;5.20;;;;;;;;;;697896;28;924;-68
2024/03/17 00:02:07;;;;;;;8.23;5.15;;;;;;;;;;697588;28;1174;-69
2024/03/17 00:02:27;;;;;;;10.27;5.40;;;;;;;;;;693255;28;1140;-68
2024/03/17 00:02:47;;;;;;;10.20;5.20;;;;;;;;;;694992;28;1126;-68
2024/03/17 00:03:11;;;;;;;7.35;4.88;;;;;;;;;;693909;28;739;-69
2024/03/17 00:03:32;;;;;;;7.18;4.85;;;;;;;;;;691756;28;2282;-69
2024/03/17 00:03:52;;;;;;;8.90;5.10;;;;;;;;;;693833;28;4301;-69
2024/03/17 00:04:12;;;;;;;7.20;4.43;;;;;;;;;;697570;28;785;-69
2024/03/17 00:04:32;;;;;;;7.90;4.67;;;;;;;;;;693852;28;2503;-68
2024/03/17 00:04:53;;;;;;;7.77;4.83;;;;;;;;;;695346;28;892;-68
2024/03/17 00:05:13;;;;;;;7.77;4.97;;;;;;;;;;694768;28;940;-67
2024/03/17 00:05:34;;;;;;;7.30;4.50;;;;;;;;;;693319;28;2363;-68
2024/03/17 00:06:01;;;;;;;7.20;4.50;;;;;;;;;;693445;28;960;-68
2024/03/17 00:06:21;;;;;;;7.28;4.57;;;;;;;;;;693664;28;1977;-68
2024/03/17 00:06:42;;;;;;;7.50;4.90;;;;;;;;;;696269;28;1007;-68
2024/03/17 00:07:03;;;;;;;8.00;5.30;;;;;;;;;;695939;28;4275;-68
2024/03/17 00:07:23;;;;;;;8.35;5.15;;;;;;;;;;695147;28;2420;-68
2024/03/17 00:07:44;;;;;;;7.73;4.80;;;;;;;;;;697675;28;979;-69
2024/03/17 00:08:04;;;;;;;8.90;4.75;;;;;;;;;;697080;28;826;-68
2024/03/17 00:08:25;;;;;;;9.27;5.20;;;;;;;;;;696299;28;2315;-68
2024/03/17 00:08:45;;;;;;;9.30;5.57;;;;;;;;;;697332;28;1345;-69
2024/03/17 00:09:09;;;;;;;8.77;5.33;;;;;;;;;;696782;28;770;-68
2024/03/17 00:09:29;;;;;;;8.48;4.78;;;;;;;;;;697837;28;1872;-68
2024/03/17 00:09:49;;;;;;;8.13;5.00;;;;;;;;;;698236;28;4474;-69
2024/03/17 00:10:10;;;;;;;10.35;5.40;;;;;;;;;;698788;28;852;-68
2024/03/17 00:10:31;;;;;;;8.60;5.47;;;;;;;;;;697251;28;2240;-69
2024/03/17 00:10:52;;;;;;;8.03;5.10;;;;;;;;;;696732;28;915;-68
2024/03/17 00:11:12;;;;;;;8.80;4.70;;;;;;;;;;693280;28;1584;-69
2024/03/17 00:11:35;;;;;;;8.03;4.80;;;;;;;;;;692373;28;2184;-68
2024/03/17 00:11:55;;;;;;;8.98;4.82;;;;;;;;;;694854;28;905;-68
2024/03/17 00:12:16;;;;;;;8.30;4.70;;;;;;;;;;692982;28;1756;-69
2024/03/17 00:12:36;;;;;;;8.37;5.03;;;;;;;;;;694593;28;1056;-69
2024/03/17 00:12:57;;;;;;;8.75;4.65;;;;;;;;;;696038;28;4260;-69
2024/03/17 00:13:18;;;;;;;7.65;4.38;;;;;;;;;;695035;28;1922;-68
2024/03/17 00:13:38;;;;;;;7.35;4.30;;;;;;;;;;696401;28;1043;-69
2024/03/17 00:13:58;;;;;;;8.67;4.70;;;;;;;;;;697394;28;2071;-69
2024/03/17 00:14:19;;;;;;;7.37;4.57;;;;;;;;;;696719;28;1754;-68
2024/03/17 00:14:39;;;;;;;8.15;4.68;;;;;;;;;;696370;28;1497;-68
2024/03/17 00:15:00;;;;;;;8.93;4.40;;;;;;;;;;696975;28;1418;-69
2024/03/17 00:15:20;;;;;;;8.45;4.40;;;;;;;;;;696575;28;2635;-69
2024/03/17 00:15:40;;;;;;;9.40;4.50;;;;;;;;;;697998;28;949;-68
2024/03/17 00:16:00;;;;;;;9.60;4.53;;;;;;;;;;697027;28;4446;-68
2024/03/17 00:16:21;;;;;;;6.72;4.28;;;;;;;;;;695376;28;1723;-69
2024/03/17 00:16:41;;;;;;;7.13;4.90;;;;;;;;;;696620;28;810;-68
2024/03/17 00:17:01;;;;;;;7.43;4.93;;;;;;;;;;698234;28;1579;-67
2024/03/17 00:17:22;;;;;;;8.45;4.60;;;;;;;;;;692557;28;1580;-68
2024/03/17 00:17:43;;;;;;;8.90;4.75;;;;;;;;;;693210;28;1228;-69
2024/03/17 00:18:04;;;;;;;7.78;4.75;;;;;;;;;;695215;28;1507;-68
2024/03/17 00:18:26;;;;;;;8.80;4.77;;;;;;;;;;695869;28;2494;-69
2024/03/17 00:18:46;;;;;;;8.88;4.72;;;;;;;;;;696370;28;4419;-68
2024/03/17 00:19:07;;;;;;;8.52;5.55;;;;;;;;;;698001;28;900;-68
2024/03/17 00:19:27;;;;;;;8.57;5.80;;;;;;;;;;695804;28;2358;-69
2024/03/17 00:19:47;;;;;;;9.40;5.93;;;;;;;;;;697505;28;1378;-69
2024/03/17 00:20:11;;;;;;;8.33;5.67;;;;;;;;;;697744;28;1136;-68
2024/03/17 00:20:32;;;;;;;8.10;5.45;;;;;;;;;;695201;28;1856;-69
2024/03/17 00:20:52;;;;;;;8.85;6.10;;;;;;;;;;698084;28;912;-69
2024/03/17 00:21:13;;;;;;;9.03;5.60;;;;;;;;;;698206;28;967;-68
2024/03/17 00:21:33;;;;;;;9.80;5.53;;;;;;;;;;691123;28;1790;-68
2024/03/17 00:21:54;;;;;;;9.57;5.40;;;;;;;;;;691541;28;4433;-69
2024/03/17 00:22:14;;;;;;;8.77;5.30;;;;;;;;;;693726;28;848;-68
2024/03/17 00:22:39;;;;;;;7.17;5.10;;;;;;;;;;690038;28;1445;-69
2024/03/17 00:22:59;;;;;;;8.02;5.47;;;;;;;;;;693196;28;909;-69
2024/03/17 00:23:20;;;;;;;7.00;4.90;;;;;;;;;;692947;28;1903;-68
2024/03/17 00:23:40;;;;;;;8.57;5.03;;;;;;;;;;697799;28;824;-68
2024/03/17 00:24:02;;;;;;;8.90;5.30;;;;;;;;;;698626;28;927;-69
2024/03/17 00:24:22;;;;;;;8.52;5.30;;;;;;;;;;696012;28;2372;-69
2024/03/17 00:24:42;;;;;;;7.67;5.27;;;;;;;;;;697577;28;735;-69
2024/03/17 00:25:03;;;;;;;8.00;5.30;;;;;;;;;;696194;28;4269;-69
2024/03/17 00:25:23;;;;;;;8.38;5.10;;;;;;;;;;694541;28;1813;-69
2024/03/17 00:25:44;;;;;;;7.70;4.93;;;;;;;;;;694982;28;956;-69
2024/03/17 00:26:04;;;;;;;9.17;5.10;;;;;;;;;;694363;28;837;-69
2024/03/17 00:26:24;;;;;;;8.80;4.95;;;;;;;;;;696442;28;1881;-69
2024/03/17 00:26:45;;;;;;;8.47;4.80;;;;;;;;;;692073;28;1804;-68
2024/03/17 00:27:06;;;;;;;7.32;4.85;;;;;;;;;;687163;28;905;-68
2024/03/17 00:27:26;;;;;;;7.50;4.70;;;;;;;;;;687309;28;1749;-68
2024/03/17 00:27:50;;;;;;;7.50;4.70;;;;;;;;;;685341;28;4389;-69
2024/03/17 00:28:12;;;;;;;7.07;4.82;;;;;;;;;;687436;28;973;-69
2024/03/17 00:28:33;;;;;;;8.43;4.85;;;;;;;;;;688266;28;1651;-68
2024/03/17 00:28:54;;;;;;;8.43;4.55;;;;;;;;;;693149;28;882;-69
2024/03/17 00:29:14;;;;;;;7.27;4.60;;;;;;;;;;692746;28;1169;-69
2024/03/17 00:29:35;;;;;;;7.38;4.88;;;;;;;;;;693889;28;2723;-69
2024/03/17 00:29:55;;;;;;;8.13;5.10;;;;;;;;;;694646;28;1178;-68
2024/03/17 00:30:15;;;;;;;7.63;4.70;;;;;;;;;;692645;28;1248;-68
2024/03/17 00:30:36;;;;;;;8.20;4.63;;;;;;;;;;692597;28;2256;-68
2024/03/17 00:30:56;;;;;;;8.17;4.83;;;;;;;;;;691931;28;4428;-69
2024/03/17 00:31:17;;;;;;;8.83;4.73;;;;;;;;;;693030;28;957;-69
2024/03/17 00:31:37;;;;;;;9.77;4.70;;;;;;;;;;694526;28;1299;-68
2024/03/17 00:31:57;;;;;;;10.53;4.73;;;;;;;;;;695705;28;796;-68
2024/03/17 00:32:18;;;;;;;7.47;4.47;;;;;;;;;;697570;28;1567;-68
2024/03/17 00:32:38;;;;;;;6.70;4.33;;;;;;;;;;697162;28;904;-68
2024/03/17 00:32:59;;;;;;;6.80;4.60;;;;;;;;;;697906;28;944;-69
2024/03/17 00:33:19;;;;;;;6.72;4.43;;;;;;;;;;696341;28;1741;-69
2024/03/17 00:33:39;;;;;;;6.93;4.70;;;;;;;;;;697654;28;800;-68
2024/03/17 00:33:59;;;;;;;7.93;4.70;;;;;;;;;;696987;28;4402;-69
2024/03/17 00:34:20;;;;;;;8.43;4.80;;;;;;;;;;694199;28;2421;-69
2024/03/17 00:34:40;;;;;;;8.13;4.60;;;;;;;;;;695504;28;1149;-68
2024/03/17 00:35:01;;;;;;;6.60;4.37;;;;;;;;;;696157;28;1294;-69
2024/03/17 00:35:21;;;;;;;8.35;4.45;;;;;;;;;;695245;28;2495;-69
2024/03/17 00:35:41;;;;;;;8.20;4.47;;;;;;;;;;695318;28;1245;-68
2024/03/17 00:36:01;;;;;;;8.10;4.63;;;;;;;;;;696066;28;1275;-69
2024/03/17 00:36:22;;;;;;;7.28;4.43;;;;;;;;;;695578;28;1759;-68
2024/03/17 00:36:42;;;;;;;7.00;4.60;;;;;;;;;;694585;28;1317;-69
2024/03/17 00:37:02;;;;;;;7.80;4.50;;;;;;;;;;695211;28;4268;-68
2024/03/17 00:37:23;;;;;;;8.48;5.07;;;;;;;;;;696557;28;1231;-68
2024/03/17 00:37:44;;;;;;;8.43;5.37;;;;;;;;;;697238;28;1251;-68
2024/03/17 00:38:09;;;;;;;7.13;4.60;;;;;;;;;;697508;28;852;-68
2024/03/17 00:38:30;;;;;;;6.90;4.25;;;;;;;;;;695516;28;1621;-69
2024/03/17 00:38:51;;;;;;;7.47;4.40;;;;;;;;;;698550;28;1166;-69
2024/03/17 00:39:12;;;;;;;7.20;4.60;;;;;;;;;;700694;28;955;-67
2024/03/17 00:39:32;;;;;;;7.72;4.57;;;;;;;;;;698061;28;2500;-69
2024/03/17 00:39:52;;;;;;;7.70;4.67;;;;;;;;;;698617;28;4265;-68
2024/03/17 00:40:14;;;;;;;7.60;4.30;;;;;;;;;;696602;28;989;-68
2024/03/17 00:40:34;;;;;;;6.32;4.07;;;;;;;;;;696416;28;1083;-68
2024/03/17 00:40:54;;;;;;;8.10;4.47;;;;;;;;;;697607;28;951;-68
2024/03/17 00:41:15;;;;;;;8.23;4.37;;;;;;;;;;697818;28;1334;-68
2024/03/17 00:41:35;;;;;;;7.53;4.38;;;;;;;;;;696936;28;1180;-69
2024/03/17 00:41:56;;;;;;;7.50;4.53;;;;;;;;;;694242;28;1331;-69
2024/03/17 00:42:16;;;;;;;6.80;4.43;;;;;;;;;;691537;28;798;-69
2024/03/17 00:42:37;;;;;;;7.80;4.60;;;;;;;;;;693909;28;1419;-68
2024/03/17 00:42:57;;;;;;;7.57;4.50;;;;;;;;;;693654;28;4254;-69
2024/03/17 00:43:17;;;;;;;6.13;4.30;;;;;;;;;;695325;28;845;-68
2024/03/17 00:43:37;;;;;;;6.80;4.57;;;;;;;;;;694370;28;889;-69
2024/03/17 00:44:00;;;;;;;7.83;4.67;;;;;;;;;;696326;28;1090;-69
2024/03/17 00:44:21;;;;;;;8.77;4.80;;;;;;;;;;696429;28;1061;-67
2024/03/17 00:44:42;;;;;;;7.05;4.93;;;;;;;;;;697798;28;904;-69
2024/03/17 00:45:05;;;;;;;8.68;4.68;;;;;;;;;;697401;28;750;-69
2024/03/17 00:45:25;;;;;;;7.65;4.40;;;;;;;;;;696354;28;1412;-69
2024/03/17 00:45:52;;;;;;;7.30;4.50;;;;;;;;;;695618;28;4499;-68
2024/03/17 00:46:12;;;;;;;6.93;4.68;;;;;;;;;;696865;28;4946;-68
2024/03/17 00:46:33;;;;;;;6.83;4.40;;;;;;;;;;696587;28;1603;-69
2024/03/17 00:46:53;;;;;;;7.05;4.40;;;;;;;;;;697252;28;1104;-69
2024/03/17 00:47:14;;;;;;;7.40;4.30;;;;;;;;;;697169;28;1509;-68
2024/03/17 00:47:34;;;;;;;7.63;4.43;;;;;;;;;;695088;28;2454;-69
2024/03/17 00:47:55;;;;;;;7.07;4.17;;;;;;;;;;697438;28;1596;-69
2024/03/17 00:48:15;;;;;;;6.87;4.30;;;;;;;;;;699614;28;860;-68
2024/03/17 00:48:36;;;;;;;7.00;4.30;;;;;;;;;;694573;28;1053;-69
2024/03/17 00:48:56;;;;;;;5.83;4.10;;;;;;;;;;694178;28;4401;-69
2024/03/17 00:49:16;;;;;;;6.80;4.20;;;;;;;;;;697019;28;1287;-69
2024/03/17 00:49:37;;;;;;;6.25;4.30;;;;;;;;;;695948;28;1256;-69
2024/03/17 00:49:57;;;;;;;6.53;4.50;;;;;;;;;;695242;28;991;-69
2024/03/17 00:50:17;;;;;;;7.35;4.32;;;;;;;;;;694110;28;1042;-68
2024/03/17 00:50:38;;;;;;;8.33;4.40;;;;;;;;;;693607;28;1969;-68
2024/03/17 00:50:58;;;;;;;7.17;4.20;;;;;;;;;;695359;28;948;-69
2024/03/17 00:51:18;;;;;;;6.50;3.92;;;;;;;;;;694009;28;2383;-69
2024/03/17 00:51:38;;;;;;;6.60;4.10;;;;;;;;;;695271;28;841;-68
2024/03/17 00:51:59;;;;;;;6.80;4.10;;;;;;;;;;693841;28;4253;-69
2024/03/17 00:52:19;;;;;;;7.20;4.22;;;;;;;;;;696794;28;1070;-69
2024/03/17 00:52:39;;;;;;;8.70;4.57;;;;;;;;;;699287;28;782;-69
2024/03/17 00:53:01;;;;;;;7.47;4.53;;;;;;;;;;700500;28;1146;-68
2024/03/17 00:53:22;;;;;;;6.63;4.50;;;;;;;;;;697474;28;1878;-69
2024/03/17 00:53:42;;;;;;;7.25;4.45;;;;;;;;;;696186;28;1311;-69
2024/03/17 00:54:02;;;;;;;8.53;4.50;;;;;;;;;;696458;28;797;-68
2024/03/17 00:54:22;;;;;;;8.03;4.37;;;;;;;;;;695989;28;1771;-69
2024/03/17 00:54:43;;;;;;;7.43;4.30;;;;;;;;;;696231;28;4263;-69
2024/03/17 00:55:04;;;;;;;7.57;4.50;;;;;;;;;;696664;28;869;-68
2024/03/17 00:55:24;;;;;;;8.32;4.75;;;;;;;;;;695183;28;1723;-68
2024/03/17 00:55:51;;;;;;;7.63;4.30;;;;;;;;;;699112;28;865;-69
2024/03/17 00:56:12;;;;;;;7.47;4.22;;;;;;;;;;699156;28;840;-69
2024/03/17 00:56:33;;;;;;;6.40;4.38;;;;;;;;;;695956;28;2525;-69
2024/03/17 00:56:54;;;;;;;8.57;4.53;;;;;;;;;;696904;28;1194;-69
2024/03/17 00:57:18;;;;;;;8.85;4.22;;;;;;;;;;696535;28;968;-69
2024/03/17 00:57:38;;;;;;;6.93;4.30;;;;;;;;;;694950;28;1832;-69
2024/03/17 00:57:58;;;;;;;6.73;4.20;;;;;;;;;;695753;28;4287;-69
2024/03/17 00:58:21;;;;;;;8.50;4.57;;;;;;;;;;696442;28;821;-68
2024/03/17 00:58:44;;;;;;;8.73;4.57;;;;;;;;;;692024;28;1046;-68
2024/03/17 00:59:04;;;;;;;6.30;4.28;;;;;;;;;;695482;28;1098;-69
2024/03/17 00:59:24;;;;;;;7.80;4.47;;;;;;;;;;694860;28;1543;-69
2024/03/17 00:59:45;;;;;;;7.93;4.80;;;;;;;;;;696106;28;829;-69
2024/03/17 01:00:06;;;;;;;6.80;4.70;;;;;;;;;;695337;28;983;-69
2024/03/17 01:00:26;;;;;;;7.40;4.40;;;;;;;;;;695338;28;2113;-68
2024/03/17 01:00:47;;;;;;;6.60;4.37;;;;;;;;;;697497;28;4322;-68
2024/03/17 01:01:08;;;;;;;8.32;4.70;;;;;;;;;;697365;28;1049;-69
2024/03/17 01:01:28;;;;;;;7.20;4.40;;;;;;;;;;695828;28;1924;-68
2024/03/17 01:01:48;;;;;;;6.30;4.20;;;;;;;;;;697134;28;921;-68
2024/03/17 01:02:08;;;;;;;7.10;4.30;;;;;;;;;;697389;28;940;-69
2024/03/17 01:02:29;;;;;;;7.27;4.23;;;;;;;;;;696799;28;1024;-69
2024/03/17 01:02:49;;;;;;;6.20;4.37;;;;;;;;;;696041;28;975;-69
2024/03/17 01:03:09;;;;;;;7.73;4.70;;;;;;;;;;697168;28;805;-68
2024/03/17 01:03:29;;;;;;;7.90;4.32;;;;;;;;;;695917;28;1853;-69
2024/03/17 01:03:50;;;;;;;7.13;4.10;;;;;;;;;;697004;28;4540;-69
2024/03/17 01:04:10;;;;;;;8.10;4.37;;;;;;;;;;696338;28;948;-68
2024/03/17 01:04:33;;;;;;;8.60;4.70;;;;;;;;;;693740;28;1497;-68
2024/03/17 01:04:54;;;;;;;9.13;5.00;;;;;;;;;;696599;28;1059;-69
2024/03/17 01:05:14;;;;;;;10.00;5.03;;;;;;;;;;696618;28;794;-68
2024/03/17 01:05:41;;;;;;;9.65;4.93;;;;;;;;;;695054;28;2688;-69
2024/03/17 01:06:04;;;;;;;8.10;4.43;;;;;;;;;;697784;28;1321;-69
2024/03/17 01:06:24;;;;;;;8.00;4.50;;;;;;;;;;697986;28;2011;-68
2024/03/17 01:06:44;;;;;;;8.37;4.50;;;;;;;;;;700391;28;4558;-68
2024/03/17 01:07:05;;;;;;;8.63;4.78;;;;;;;;;;698097;28;952;-69
2024/03/17 01:07:25;;;;;;;9.20;5.17;;;;;;;;;;698596;28;1816;-68
2024/03/17 01:07:47;;;;;;;9.00;4.87;;;;;;;;;;695208;28;1147;-69
2024/03/17 01:08:09;;;;;;;7.07;4.72;;;;;;;;;;695830;28;900;-69
2024/03/17 01:08:29;;;;;;;7.82;4.65;;;;;;;;;;690224;28;1491;-69
2024/03/17 01:08:51;;;;;;;8.70;4.55;;;;;;;;;;692081;28;1441;-68
2024/03/17 01:09:11;;;;;;;7.32;4.80;;;;;;;;;;693465;28;869;-69
2024/03/17 01:09:32;;;;;;;7.63;5.07;;;;;;;;;;692773;28;2329;-68
2024/03/17 01:09:52;;;;;;;9.80;5.27;;;;;;;;;;695861;28;4253;-68
2024/03/17 01:10:14;;;;;;;8.60;5.40;;;;;;;;;;697236;28;805;-69
2024/03/17 01:10:38;;;;;;;8.20;5.10;;;;;;;;;;696184;28;2390;-68
2024/03/17 01:10:58;;;;;;;8.23;4.90;;;;;;;;;;697022;28;996;-68
2024/03/17 01:11:18;;;;;;;7.75;5.00;;;;;;;;;;696360;28;1245;-68
2024/03/17 01:11:39;;;;;;;7.40;4.67;;;;;;;;;;696364;28;2408;-69
2024/03/17 01:11:59;;;;;;;7.53;4.70;;;;;;;;;;697234;28;1038;-68
2024/03/17 01:12:20;;;;;;;8.00;4.80;;;;;;;;;;696305;28;2298;-69
2024/03/17 01:12:40;;;;;;;8.17;4.77;;;;;;;;;;696114;28;834;-69
2024/03/17 01:13:00;;;;;;;8.17;4.83;;;;;;;;;;696951;28;4218;-69
2024/03/17 01:13:20;;;;;;;8.60;4.77;;;;;;;;;;696124;28;1735;-69
2024/03/17 01:13:41;;;;;;;9.73;5.13;;;;;;;;;;698049;28;798;-69
2024/03/17 01:14:01;;;;;;;8.23;4.67;;;;;;;;;;699283;28;856;-68
2024/03/17 01:14:21;;;;;;;6.55;4.38;;;;;;;;;;696537;28;2394;-69
2024/03/17 01:14:42;;;;;;;8.27;5.10;;;;;;;;;;695600;28;1299;-69
2024/03/17 01:15:03;;;;;;;8.37;4.93;;;;;;;;;;697319;28;936;-69
2024/03/17 01:15:24;;;;;;;7.20;4.78;;;;;;;;;;696228;28;1917;-69
2024/03/17 01:15:44;;;;;;;7.40;4.80;;;;;;;;;;695644;28;4247;-68
2024/03/17 01:16:04;;;;;;;7.45;4.50;;;;;;;;;;697156;28;892;-68
2024/03/17 01:16:25;;;;;;;7.73;4.50;;;;;;;;;;695718;28;2374;-69
2024/03/17 01:16:45;;;;;;;9.87;4.70;;;;;;;;;;697800;28;853;-67
2024/03/17 01:17:06;;;;;;;8.73;4.53;;;;;;;;;;697855;28;896;-68
2024/03/17 01:17:26;;;;;;;7.87;4.73;;;;;;;;;;696457;28;1670;-69
2024/03/17 01:17:46;;;;;;;10.30;4.82;;;;;;;;;;697407;28;869;-69
2024/03/17 01:18:07;;;;;;;7.13;4.43;;;;;;;;;;696844;28;1427;-68
2024/03/17 01:18:27;;;;;;;7.03;4.55;;;;;;;;;;695972;28;1898;-68
2024/03/17 01:18:47;;;;;;;8.07;4.37;;;;;;;;;;696283;28;4311;-68
2024/03/17 01:19:08;;;;;;;9.23;4.30;;;;;;;;;;697621;28;931;-68
2024/03/17 01:19:28;;;;;;;8.23;4.40;;;;;;;;;;695998;28;2300;-68
2024/03/17 01:19:48;;;;;;;7.73;4.57;;;;;;;;;;697207;28;1416;-69
2024/03/17 01:20:09;;;;;;;7.97;4.60;;;;;;;;;;697229;28;971;-68
2024/03/17 01:20:29;;;;;;;7.93;4.60;;;;;;;;;;696728;28;1148;-68
2024/03/17 01:20:49;;;;;;;7.43;4.50;;;;;;;;;;697893;28;822;-68
2024/03/17 01:21:09;;;;;;;7.82;4.50;;;;;;;;;;696756;28;849;-69
2024/03/17 01:21:30;;;;;;;8.27;4.37;;;;;;;;;;695715;28;2507;-68
2024/03/17 01:21:50;;;;;;;7.80;4.33;;;;;;;;;;695886;28;4424;-69
2024/03/17 01:22:10;;;;;;;7.15;4.30;;;;;;;;;;696536;28;924;-68
2024/03/17 01:22:31;;;;;;;6.83;4.47;;;;;;;;;;695640;28;2339;-68
2024/03/17 01:22:51;;;;;;;9.23;4.70;;;;;;;;;;696342;28;793;-68
2024/03/17 01:23:11;;;;;;;7.72;4.50;;;;;;;;;;696392;28;1237;-68
2024/03/17 01:23:32;;;;;;;5.90;4.13;;;;;;;;;;695204;28;2286;-68
2024/03/17 01:23:52;;;;;;;7.70;4.20;;;;;;;;;;696975;28;1263;-68
2024/03/17 01:24:13;;;;;;;7.43;4.23;;;;;;;;;;697379;28;947;-69
2024/03/17 01:24:33;;;;;;;7.15;4.63;;;;;;;;;;696816;28;2598;-68
2024/03/17 01:24:53;;;;;;;9.40;5.00;;;;;;;;;;695039;28;4397;-69
2024/03/17 01:25:14;;;;;;;8.45;4.75;;;;;;;;;;697848;28;860;-68
2024/03/17 01:25:37;;;;;;;7.07;4.50;;;;;;;;;;696279;28;1209;-68
2024/03/17 01:25:57;;;;;;;6.78;4.47;;;;;;;;;;696307;28;953;-67
2024/03/17 01:26:17;;;;;;;8.00;4.60;;;;;;;;;;695631;28;885;-69
2024/03/17 01:26:38;;;;;;;7.72;4.32;;;;;;;;;;695643;28;1757;-68
2024/03/17 01:26:59;;;;;;;8.07;4.50;;;;;;;;;;698165;28;762;-68
2024/03/17 01:27:19;;;;;;;8.20;4.50;;;;;;;;;;697793;28;861;-69
2024/03/17 01:27:39;;;;;;;7.70;4.40;;;;;;;;;;694967;28;2452;-68
2024/03/17 01:27:59;;;;;;;6.90;4.40;;;;;;;;;;696278;28;4440;-69
2024/03/17 01:28:19;;;;;;;6.67;4.57;;;;;;;;;;695894;28;1322;-68
2024/03/17 01:28:40;;;;;;;6.23;4.33;;;;;;;;;;694916;28;1803;-68
2024/03/17 01:29:01;;;;;;;6.90;4.47;;;;;;;;;;697907;28;885;-68
2024/03/17 01:29:21;;;;;;;7.05;4.40;;;;;;;;;;694963;28;1615;-69
2024/03/17 01:29:43;;;;;;;7.13;4.10;;;;;;;;;;696966;28;876;-68
2024/03/17 01:30:03;;;;;;;6.43;4.10;;;;;;;;;;695378;28;1129;-68
2024/03/17 01:30:24;;;;;;;6.67;4.30;;;;;;;;;;696496;28;2456;-69
2024/03/17 01:30:45;;;;;;;8.30;4.55;;;;;;;;;;696328;28;4526;-68
2024/03/17 01:31:05;;;;;;;8.25;4.50;;;;;;;;;;696977;28;873;-68
2024/03/17 01:31:26;;;;;;;8.17;4.50;;;;;;;;;;695314;28;2825;-68
2024/03/17 01:31:46;;;;;;;8.40;4.40;;;;;;;;;;696391;28;1289;-68
2024/03/17 01:32:07;;;;;;;8.55;4.45;;;;;;;;;;693900;28;1147;-68
2024/03/17 01:32:27;;;;;;;7.73;4.57;;;;;;;;;;694224;28;1747;-68
2024/03/17 01:32:48;;;;;;;8.03;4.50;;;;;;;;;;694494;28;840;-68
2024/03/17 01:33:10;;;;;;;6.68;4.32;;;;;;;;;;694941;28;929;-68
2024/03/17 01:33:30;;;;;;;7.53;4.43;;;;;;;;;;693096;28;1783;-68
2024/03/17 01:33:50;;;;;;;6.63;4.35;;;;;;;;;;696187;28;4437;-69
2024/03/17 01:34:11;;;;;;;6.40;4.23;;;;;;;;;;697451;28;866;-68
2024/03/17 01:34:31;;;;;;;6.43;4.40;;;;;;;;;;696025;28;1527;-69
2024/03/17 01:34:51;;;;;;;8.00;4.30;;;;;;;;;;697097;28;1551;-69
2024/03/17 01:35:12;;;;;;;8.17;4.20;;;;;;;;;;696145;28;1153;-68
2024/03/17 01:35:32;;;;;;;6.50;4.10;;;;;;;;;;695546;28;1965;-69
2024/03/17 01:35:53;;;;;;;8.07;4.45;;;;;;;;;;696783;28;905;-68
2024/03/17 01:36:13;;;;;;;7.53;4.38;;;;;;;;;;697167;28;797;-68
2024/03/17 01:36:33;;;;;;;6.83;4.40;;;;;;;;;;695584;28;977;-69
2024/03/17 01:36:54;;;;;;;7.90;4.40;;;;;;;;;;696254;28;4416;-68
2024/03/17 01:37:14;;;;;;;7.13;4.47;;;;;;;;;;698606;28;1154;-68
2024/03/17 01:37:35;;;;;;;7.93;4.50;;;;;;;;;;694734;28;2171;-69
2024/03/17 01:37:55;;;;;;;7.10;4.40;;;;;;;;;;694528;28;952;-68
2024/03/17 01:38:15;;;;;;;7.83;4.77;;;;;;;;;;695602;28;841;-68
2024/03/17 01:38:35;;;;;;;7.27;4.50;;;;;;;;;;694018;28;1468;-68
2024/03/17 01:38:56;;;;;;;7.47;4.60;;;;;;;;;;695354;28;1205;-68
2024/03/17 01:39:17;;;;;;;6.83;4.73;;;;;;;;;;694926;28;893;-68
2024/03/17 01:39:38;;;;;;;7.97;4.78;;;;;;;;;;695505;28;1061;-69
2024/03/17 01:39:58;;;;;;;9.17;4.70;;;;;;;;;;696544;28;4410;-68
2024/03/17 01:40:19;;;;;;;8.30;4.85;;;;;;;;;;696885;28;947;-68
2024/03/17 01:40:39;;;;;;;6.73;4.73;;;;;;;;;;695005;28;1876;-69
2024/03/17 01:40:59;;;;;;;7.90;4.60;;;;;;;;;;696869;28;743;-68
2024/03/17 01:41:20;;;;;;;7.97;5.00;;;;;;;;;;697315;28;1389;-68
2024/03/17 01:41:40;;;;;;;9.20;4.80;;;;;;;;;;695687;28;1796;-69
2024/03/17 01:42:00;;;;;;;9.53;4.60;;;;;;;;;;697335;28;1463;-68
2024/03/17 01:42:21;;;;;;;9.00;4.70;;;;;;;;;;697704;28;4865;-68
2024/03/17 01:42:41;;;;;;;8.32;4.60;;;;;;;;;;696604;28;1789;-69
2024/03/17 01:43:02;;;;;;;7.50;4.50;;;;;;;;;;696358;28;4272;-68
2024/03/17 01:43:22;;;;;;;7.88;4.30;;;;;;;;;;698083;28;823;-68
2024/03/17 01:43:43;;;;;;;7.83;4.40;;;;;;;;;;697632;28;943;-69
2024/03/17 01:44:03;;;;;;;6.97;4.53;;;;;;;;;;697381;28;936;-68
2024/03/17 01:44:25;;;;;;;6.70;4.50;;;;;;;;;;696554;28;1897;-69
2024/03/17 01:44:45;;;;;;;6.72;4.60;;;;;;;;;;695510;28;909;-69
2024/03/17 01:45:24;;;;;;;6.93;4.47;;;;;;;;;;696766;28;810;-69
2024/03/17 01:45:44;;;;;;;7.10;4.32;;;;;;;;;;695577;28;4445;-68
2024/03/17 01:46:05;;;;;;;7.20;4.43;;;;;;;;;;697542;28;991;-69
2024/03/17 01:46:25;;;;;;;7.77;4.50;;;;;;;;;;695692;28;2306;-68
2024/03/17 01:46:46;;;;;;;7.20;4.50;;;;;;;;;;694361;28;948;-68
2024/03/17 01:47:08;;;;;;;7.37;4.87;;;;;;;;;;696368;28;1462;-68
2024/03/17 01:47:29;;;;;;;7.03;4.50;;;;;;;;;;696656;28;1415;-69
2024/03/17 01:47:49;;;;;;;6.70;4.30;;;;;;;;;;697345;28;798;-68
2024/03/17 01:48:13;;;;;;;9.07;4.70;;;;;;;;;;693744;28;1411;-68
2024/03/17 01:48:34;;;;;;;9.30;4.80;;;;;;;;;;694636;28;2329;-69
2024/03/17 01:48:54;;;;;;;6.90;4.60;;;;;;;;;;695897;28;4405;-68
2024/03/17 01:49:16;;;;;;;7.03;4.60;;;;;;;;;;697919;28;920;-69
2024/03/17 01:49:36;;;;;;;7.80;4.40;;;;;;;;;;693158;28;1484;-68
2024/03/17 01:49:56;;;;;;;7.05;4.30;;;;;;;;;;693083;28;901;-68
2024/03/17 01:50:19;;;;;;;7.40;4.43;;;;;;;;;;693251;28;1334;-68
2024/03/17 01:50:39;;;;;;;8.55;5.00;;;;;;;;;;693738;28;2272;-68
2024/03/17 01:51:01;;;;;;;8.63;5.37;;;;;;;;;;695954;28;893;-68
2024/03/17 01:51:22;;;;;;;9.32;5.22;;;;;;;;;;695909;28;928;-68
2024/03/17 01:51:44;;;;;;;7.90;5.00;;;;;;;;;;694782;28;1748;-68
2024/03/17 01:52:05;;;;;;;7.05;4.85;;;;;;;;;;695470;28;4647;-68
2024/03/17 01:52:26;;;;;;;8.25;4.90;;;;;;;;;;694734;28;2157;-68
2024/03/17 01:52:47;;;;;;;7.67;4.87;;;;;;;;;;694521;28;869;-68
2024/03/17 01:53:08;;;;;;;8.80;4.82;;;;;;;;;;696629;28;936;-68
2024/03/17 01:53:29;;;;;;;7.82;4.93;;;;;;;;;;694016;28;1595;-68
2024/03/17 01:53:50;;;;;;;9.10;5.25;;;;;;;;;;695377;28;1063;-68
2024/03/17 01:54:10;;;;;;;9.07;5.10;;;;;;;;;;695413;28;854;-68
2024/03/17 01:54:30;;;;;;;8.23;4.90;;;;;;;;;;692995;28;2469;-68
2024/03/17 01:54:51;;;;;;;8.40;5.20;;;;;;;;;;694787;28;4272;-68
2024/03/17 01:55:11;;;;;;;10.63;5.60;;;;;;;;;;698050;28;967;-69
2024/03/17 01:55:36;;;;;;;10.25;5.20;;;;;;;;;;694589;28;2272;-69
2024/03/17 01:55:57;;;;;;;8.27;5.28;;;;;;;;;;696118;28;882;-68
2024/03/17 01:56:17;;;;;;;8.60;5.15;;;;;;;;;;697354;28;790;-69
2024/03/17 01:56:37;;;;;;;8.90;5.07;;;;;;;;;;696020;28;2165;-69
2024/03/17 01:56:57;;;;;;;10.00;5.00;;;;;;;;;;696733;28;869;-68
2024/03/17 01:57:18;;;;;;;8.95;4.97;;;;;;;;;;696218;28;1023;-69
2024/03/17 01:57:38;;;;;;;8.43;4.87;;;;;;;;;;696712;28;1876;-68
2024/03/17 01:57:59;;;;;;;8.57;5.30;;;;;;;;;;696940;28;4406;-68
2024/03/17 01:58:20;;;;;;;9.45;5.28;;;;;;;;;;697106;28;870;-68
2024/03/17 01:58:42;;;;;;;8.52;5.05;;;;;;;;;;694470;28;1172;-68
2024/03/17 01:59:04;;;;;;;9.20;5.45;;;;;;;;;;697228;28;864;-68
2024/03/17 01:59:25;;;;;;;9.75;5.30;;;;;;;;;;694419;28;2323;-68
2024/03/17 01:59:46;;;;;;;8.60;5.10;;;;;;;;;;697780;28;916;-68
2024/03/17 02:00:08;;;;;;;8.85;4.85;;;;;;;;;;697743;28;1258;-68
2024/03/17 02:00:30;;;;;;;8.60;4.90;;;;;;;;;;693875;28;1149;-69
2024/03/17 02:00:52;;;;;;;9.02;4.90;;;;;;;;;;696808;28;4267;-69
2024/03/17 02:01:15;;;;;;;8.80;5.07;;;;;;;;;;696595;28;1541;-68
2024/03/17 02:01:36;;;;;;;7.93;5.07;;;;;;;;;;696015;28;1455;-69
2024/03/17 02:01:57;;;;;;;7.75;5.22;;;;;;;;;;697838;28;806;-68
2024/03/17 02:02:17;;;;;;;7.45;5.07;;;;;;;;;;698506;28;856;-69
2024/03/17 02:02:38;;;;;;;7.97;5.23;;;;;;;;;;695279;28;1787;-69
2024/03/17 02:02:58;;;;;;;10.00;5.50;;;;;;;;;;696605;28;945;-69
2024/03/17 02:03:18;;;;;;;8.37;5.17;;;;;;;;;;695766;28;774;-68
2024/03/17 02:03:39;;;;;;;8.73;5.13;;;;;;;;;;696732;28;1807;-68
2024/03/17 02:03:59;;;;;;;9.57;5.72;;;;;;;;;;696951;28;4425;-68
2024/03/17 02:04:21;;;;;;;12.47;6.00;;;;;;;;;;696575;28;940;-69
2024/03/17 02:04:41;;;;;;;9.63;5.28;;;;;;;;;;694997;28;1917;-69
2024/03/17 02:05:02;;;;;;;8.03;5.40;;;;;;;;;;696530;28;857;-68
2024/03/17 02:05:23;;;;;;;9.00;4.90;;;;;;;;;;697103;28;1011;-68
2024/03/17 02:05:43;;;;;;;7.70;4.90;;;;;;;;;;695572;28;2303;-69
2024/03/17 02:06:04;;;;;;;7.97;5.07;;;;;;;;;;697490;28;1300;-69
2024/03/17 02:06:25;;;;;;;8.20;5.35;;;;;;;;;;694743;28;1813;-69
2024/03/17 02:06:45;;;;;;;9.23;5.30;;;;;;;;;;696659;28;4431;-68
2024/03/17 02:07:05;;;;;;;8.83;5.40;;;;;;;;;;696468;28;810;-68
2024/03/17 02:07:25;;;;;;;9.50;5.65;;;;;;;;;;694788;28;2390;-68
2024/03/17 02:07:46;;;;;;;10.10;6.10;;;;;;;;;;695419;28;1158;-68
2024/03/17 02:08:06;;;;;;;9.67;5.77;;;;;;;;;;697093;28;821;-69
2024/03/17 02:08:27;;;;;;;7.95;5.30;;;;;;;;;;694793;28;1867;-68
2024/03/17 02:08:48;;;;;;;9.60;5.20;;;;;;;;;;695270;28;776;-68
2024/03/17 02:09:09;;;;;;;9.93;5.43;;;;;;;;;;697765;28;904;-68